Gunnison, UT

1:26 AM MDT on September 23, 2014 (GMT -0600)
RAWS SEVIER RESERVOIR UT US | Change Station
CLOSE
Current Station
Personal Weather Station
Location: Scipio, UT
Elevation: 5369 ft
Nearby Weather Stations

Elev 5369 ft 39.33 °N, 112.05 °W | Updated 35 minutes ago

Clear
Clear
60 °F
Feels Like 60 °F
N
2
Wind Variable Wind from SSE
Gusts 5.0 mph

Today
High -- | Low -- °F
--% Chance of Precip.
Yesterday
High -- | Low -- °F
Precip. -- in
7:16 AM 7:22 PM
Waning Crescent, 1% visible
Pressure 30.07 in
Visibility 10.0 miles
Clouds Clear
Dew Point 49 °F
Humidity 67%
Rainfall 0.05 in
Snow Depth Not available.
UV 0 out of 12
Pollen 4.30 out of 12
Air Quality Not available.
Flu Activity Not available.
METAR KPUC 230653Z AUTO 00000KT 10SM CLR 14/11 A3022 RMK AO2 SLP182 T01440111 402110117

More Conditions Fewer Conditions

Pressure 30.07 in
Visibility 10.0 miles
Clouds Clear
Dew Point 49 °F
Humidity 67%
Rainfall 0.05 in
Snow Depth Not available.
UV 0 out of 12
Pollen 4.30 out of 12
Air Quality Not available.
Flu Activity Not available.
METAR KPUC 230653Z AUTO 00000KT 10SM CLR 14/11 A3022 RMK AO2 SLP182 T01440111 402110117

More Conditions Fewer Conditions

10-Day Weather Forecast

Almanac

Astronomy

Sep. 23, 2014 Rise Set
Actual Time 7:16 AM MDT 7:22 PM MDT
Civil Twilight 6:49 AM MDT 7:49 PM MDT
Nautical Twilight 6:18 AM MDT 8:20 PM MDT
Astronomical Twilight 5:46 AM MDT 8:52 PM MDT
Moon 6:43 AM MDT 7:03 PM MDT
Length of Visible Light 12h 59m
Length of Day
12h 06m
Tomorrow will be 2m 33s shorter.
Waning Crescent, 1% of the Moon is Illuminated
Today
Waning Crescent
Sep 24
New
Oct 1
First Quarter
Oct 8
Full
Oct 15
Last Quarter

Today's Extremes

State Highs State Lows

Community

WunderPhotos

Upload Photos

1,755,608 photos uploaded!

Nearby

Snow Depth

Station Depth Elevation
Rocky Basin-Settlement 0 in 8900 ft
Five Points Lake 0 in 10920 ft
Cascade Mountain 1 in 7768 ft
Thaynes Canyon 0 in 9200 ft
Long Valley Jct 1 in 7360 ft

Earthquake Activity

City Distance Mag. Time & Date
No recent earthquake activity has been reported nearby.
Minimum magnitude displayed is 2.5.

Coastal Water Temperatures

Place Temperature
No Stations Reporting

Nearby Weather Stations